sensor_id;sensor_type;location;lat;lon;timestamp;temperature;humidity
74617;DHT22;63123;50.906;4.198;2023-10-09T00:01:40;20.60;67.90
74617;DHT22;63123;50.906;4.198;2023-10-09T00:04:08;20.70;68.00
74617;DHT22;63123;50.906;4.198;2023-10-09T00:06:36;20.70;68.00
74617;DHT22;63123;50.906;4.198;2023-10-09T00:09:05;20.60;67.90
74617;DHT22;63123;50.906;4.198;2023-10-09T00:11:56;20.70;67.90
74617;DHT22;63123;50.906;4.198;2023-10-09T00:14:26;20.70;67.90
74617;DHT22;63123;50.906;4.198;2023-10-09T00:16:56;20.70;67.90
74617;DHT22;63123;50.906;4.198;2023-10-09T00:19:28;20.70;67.90
74617;DHT22;63123;50.906;4.198;2023-10-09T00:21:57;20.70;67.90
74617;DHT22;63123;50.906;4.198;2023-10-09T00:24:24;20.60;67.90
74617;DHT22;63123;50.906;4.198;2023-10-09T00:26:54;20.70;67.90
74617;DHT22;63123;50.906;4.198;2023-10-09T00:29:26;20.70;68.00
74617;DHT22;63123;50.906;4.198;2023-10-09T00:31:59;20.70;67.90
74617;DHT22;63123;50.906;4.198;2023-10-09T00:34:39;20.70;67.90
74617;DHT22;63123;50.906;4.198;2023-10-09T00:37:08;20.70;67.90
74617;DHT22;63123;50.906;4.198;2023-10-09T00:39:57;20.70;67.90
74617;DHT22;63123;50.906;4.198;2023-10-09T00:42:23;20.60;67.80
74617;DHT22;63123;50.906;4.198;2023-10-09T00:44:58;20.70;68.00
74617;DHT22;63123;50.906;4.198;2023-10-09T00:47:34;20.60;67.90
74617;DHT22;63123;50.906;4.198;2023-10-09T00:50:05;20.70;67.90
74617;DHT22;63123;50.906;4.198;2023-10-09T00:52:49;20.60;67.90
74617;DHT22;63123;50.906;4.198;2023-10-09T00:55:21;20.70;67.90
74617;DHT22;63123;50.906;4.198;2023-10-09T00:57:51;20.70;67.90
74617;DHT22;63123;50.906;4.198;2023-10-09T01:00:30;20.70;68.50
74617;DHT22;63123;50.906;4.198;2023-10-09T01:03:13;20.70;67.90
74617;DHT22;63123;50.906;4.198;2023-10-09T01:05:44;20.70;67.90
74617;DHT22;63123;50.906;4.198;2023-10-09T01:08:22;20.70;67.90
74617;DHT22;63123;50.906;4.198;2023-10-09T01:10:57;20.70;67.90
74617;DHT22;63123;50.906;4.198;2023-10-09T01:13:25;20.70;67.90
74617;DHT22;63123;50.906;4.198;2023-10-09T01:16:09;20.70;67.90
74617;DHT22;63123;50.906;4.198;2023-10-09T01:18:45;20.60;67.80
74617;DHT22;63123;50.906;4.198;2023-10-09T01:21:12;20.70;67.90
74617;DHT22;63123;50.906;4.198;2023-10-09T01:23:42;20.60;67.80
74617;DHT22;63123;50.906;4.198;2023-10-09T01:26:46;20.70;67.90
74617;DHT22;63123;50.906;4.198;2023-10-09T01:29:16;20.70;67.90
74617;DHT22;63123;50.906;4.198;2023-10-09T01:31:53;20.60;67.80
74617;DHT22;63123;50.906;4.198;2023-10-09T01:34:33;20.70;67.90
74617;DHT22;63123;50.906;4.198;2023-10-09T01:37:13;20.70;67.80
74617;DHT22;63123;50.906;4.198;2023-10-09T01:39:48;20.70;67.90
74617;DHT22;63123;50.906;4.198;2023-10-09T01:42:15;20.70;67.80
74617;DHT22;63123;50.906;4.198;2023-10-09T01:44:56;20.60;67.80
74617;DHT22;63123;50.906;4.198;2023-10-09T01:47:24;20.60;67.80
74617;DHT22;63123;50.906;4.198;2023-10-09T01:49:51;20.70;67.80
74617;DHT22;63123;50.906;4.198;2023-10-09T01:52:19;20.60;67.80
74617;DHT22;63123;50.906;4.198;2023-10-09T01:54:46;20.70;67.80
74617;DHT22;63123;50.906;4.198;2023-10-09T01:57:15;20.60;67.80
74617;DHT22;63123;50.906;4.198;2023-10-09T01:59:44;20.70;67.80
74617;DHT22;63123;50.906;4.198;2023-10-09T02:02:13;20.60;67.80
74617;DHT22;63123;50.906;4.198;2023-10-09T02:04:41;20.60;67.80
74617;DHT22;63123;50.906;4.198;2023-10-09T02:07:07;20.60;67.80
74617;DHT22;63123;50.906;4.198;2023-10-09T02:09:34;20.70;67.90
74617;DHT22;63123;50.906;4.198;2023-10-09T02:12:01;20.60;67.80
74617;DHT22;63123;50.906;4.198;2023-10-09T02:14:27;20.60;67.80
74617;DHT22;63123;50.906;4.198;2023-10-09T02:16:53;20.60;67.80
74617;DHT22;63123;50.906;4.198;2023-10-09T02:19:31;20.60;67.80
74617;DHT22;63123;50.906;4.198;2023-10-09T02:22:00;20.60;67.80
74617;DHT22;63123;50.906;4.198;2023-10-09T02:24:42;20.60;67.80
74617;DHT22;63123;50.906;4.198;2023-10-09T02:27:14;20.60;67.80
74617;DHT22;63123;50.906;4.198;2023-10-09T02:29:58;20.70;67.80
74617;DHT22;63123;50.906;4.198;2023-10-09T02:32:24;20.70;67.80
74617;DHT22;63123;50.906;4.198;2023-10-09T02:34:53;20.60;67.80
74617;DHT22;63123;50.906;4.198;2023-10-09T02:37:20;20.60;67.80
74617;DHT22;63123;50.906;4.198;2023-10-09T02:39:50;20.60;67.70
74617;DHT22;63123;50.906;4.198;2023-10-09T02:42:18;20.70;67.80
74617;DHT22;63123;50.906;4.198;2023-10-09T02:44:53;20.60;67.70
74617;DHT22;63123;50.906;4.198;2023-10-09T02:47:19;20.60;67.80
74617;DHT22;63123;50.906;4.198;2023-10-09T02:49:55;20.70;67.80
74617;DHT22;63123;50.906;4.198;2023-10-09T02:52:32;20.70;67.80
74617;DHT22;63123;50.906;4.198;2023-10-09T02:54:59;20.60;67.70
74617;DHT22;63123;50.906;4.198;2023-10-09T02:57:27;20.70;67.80
74617;DHT22;63123;50.906;4.198;2023-10-09T03:00:05;20.60;67.70
74617;DHT22;63123;50.906;4.198;2023-10-09T03:02:55;20.60;67.70
74617;DHT22;63123;50.906;4.198;2023-10-09T03:05:23;20.60;67.70
74617;DHT22;63123;50.906;4.198;2023-10-09T03:07:55;20.60;67.70
74617;DHT22;63123;50.906;4.198;2023-10-09T03:10:22;20.60;67.70
74617;DHT22;63123;50.906;4.198;2023-10-09T03:12:48;20.60;67.70
74617;DHT22;63123;50.906;4.198;2023-10-09T03:15:19;20.60;67.70
74617;DHT22;63123;50.906;4.198;2023-10-09T03:17:45;20.60;67.70
74617;DHT22;63123;50.906;4.198;2023-10-09T03:20:12;20.60;67.70
74617;DHT22;63123;50.906;4.198;2023-10-09T03:22:40;20.60;67.70
74617;DHT22;63123;50.906;4.198;2023-10-09T03:25:06;20.70;67.70
74617;DHT22;63123;50.906;4.198;2023-10-09T03:27:43;20.70;67.70
74617;DHT22;63123;50.906;4.198;2023-10-09T03:30:16;20.60;67.70
74617;DHT22;63123;50.906;4.198;2023-10-09T03:32:49;20.60;67.70
74617;DHT22;63123;50.906;4.198;2023-10-09T03:35:20;20.60;67.70
74617;DHT22;63123;50.906;4.198;2023-10-09T03:38:00;20.70;67.70
74617;DHT22;63123;50.906;4.198;2023-10-09T03:40:31;20.60;67.70
74617;DHT22;63123;50.906;4.198;2023-10-09T03:42:57;20.60;67.70
74617;DHT22;63123;50.906;4.198;2023-10-09T03:45:23;20.70;67.70
74617;DHT22;63123;50.906;4.198;2023-10-09T03:47:59;20.60;67.70
74617;DHT22;63123;50.906;4.198;2023-10-09T03:50:34;20.60;67.70
74617;DHT22;63123;50.906;4.198;2023-10-09T03:53:06;20.60;67.70
74617;DHT22;63123;50.906;4.198;2023-10-09T03:55:36;20.70;67.70
74617;DHT22;63123;50.906;4.198;2023-10-09T03:58:04;20.60;67.60
74617;DHT22;63123;50.906;4.198;2023-10-09T04:00:29;20.60;67.70
74617;DHT22;63123;50.906;4.198;2023-10-09T04:02:57;20.60;67.70
74617;DHT22;63123;50.906;4.198;2023-10-09T04:05:24;20.60;67.70
74617;DHT22;63123;50.906;4.198;2023-10-09T04:07:50;20.60;67.60
74617;DHT22;63123;50.906;4.198;2023-10-09T04:10:19;20.70;67.70
74617;DHT22;63123;50.906;4.198;2023-10-09T04:13:03;20.60;67.60
74617;DHT22;63123;50.906;4.198;2023-10-09T04:15:34;20.60;67.70
74617;DHT22;63123;50.906;4.198;2023-10-09T04:18:01;20.60;67.60
74617;DHT22;63123;50.906;4.198;2023-10-09T04:20:26;20.60;67.70
74617;DHT22;63123;50.906;4.198;2023-10-09T04:22:58;20.70;67.70
74617;DHT22;63123;50.906;4.198;2023-10-09T04:25:32;20.60;68.20
74617;DHT22;63123;50.906;4.198;2023-10-09T04:28:16;20.60;67.60
74617;DHT22;63123;50.906;4.198;2023-10-09T04:30:46;20.60;67.60
74617;DHT22;63123;50.906;4.198;2023-10-09T04:33:21;20.60;67.60
74617;DHT22;63123;50.906;4.198;2023-10-09T04:36:14;20.60;67.60
74617;DHT22;63123;50.906;4.198;2023-10-09T04:38:49;20.60;67.60
74617;DHT22;63123;50.906;4.198;2023-10-09T04:41:22;20.60;67.60
74617;DHT22;63123;50.906;4.198;2023-10-09T04:43:57;20.60;67.60
74617;DHT22;63123;50.906;4.198;2023-10-09T04:46:42;20.60;67.60
74617;DHT22;63123;50.906;4.198;2023-10-09T04:49:31;20.60;67.60
74617;DHT22;63123;50.906;4.198;2023-10-09T04:52:11;20.60;67.60
74617;DHT22;63123;50.906;4.198;2023-10-09T04:54:45;20.60;67.60
74617;DHT22;63123;50.906;4.198;2023-10-09T04:57:29;20.70;67.60
74617;DHT22;63123;50.906;4.198;2023-10-09T04:59:55;20.70;67.70
74617;DHT22;63123;50.906;4.198;2023-10-09T05:02:26;20.60;67.60
74617;DHT22;63123;50.906;4.198;2023-10-09T05:05:02;20.60;67.60
74617;DHT22;63123;50.906;4.198;2023-10-09T05:07:47;20.60;67.60
74617;DHT22;63123;50.906;4.198;2023-10-09T05:10:22;20.60;67.60
74617;DHT22;63123;50.906;4.198;2023-10-09T05:12:51;20.60;67.60
74617;DHT22;63123;50.906;4.198;2023-10-09T05:15:25;20.60;67.60
74617;DHT22;63123;50.906;4.198;2023-10-09T05:17:56;20.60;67.60
74617;DHT22;63123;50.906;4.198;2023-10-09T05:20:34;20.60;67.60
74617;DHT22;63123;50.906;4.198;2023-10-09T05:23:21;20.70;67.60
74617;DHT22;63123;50.906;4.198;2023-10-09T05:25:51;20.60;67.60
74617;DHT22;63123;50.906;4.198;2023-10-09T05:28:19;20.60;67.50
74617;DHT22;63123;50.906;4.198;2023-10-09T05:30:57;20.70;67.60
74617;DHT22;63123;50.906;4.198;2023-10-09T05:33:37;20.60;67.50
74617;DHT22;63123;50.906;4.198;2023-10-09T05:36:04;20.70;67.60
74617;DHT22;63123;50.906;4.198;2023-10-09T05:38:40;20.60;67.50
74617;DHT22;63123;50.906;4.198;2023-10-09T05:41:12;20.60;67.50
74617;DHT22;63123;50.906;4.198;2023-10-09T05:43:56;20.70;67.60
74617;DHT22;63123;50.906;4.198;2023-10-09T05:46:40;20.60;67.50
74617;DHT22;63123;50.906;4.198;2023-10-09T05:49:25;20.60;67.50
74617;DHT22;63123;50.906;4.198;2023-10-09T05:52:11;20.60;67.50
74617;DHT22;63123;50.906;4.198;2023-10-09T05:54:55;20.60;67.50
74617;DHT22;63123;50.906;4.198;2023-10-09T05:57:39;20.60;67.50
74617;DHT22;63123;50.906;4.198;2023-10-09T06:00:24;20.60;67.50
74617;DHT22;63123;50.906;4.198;2023-10-09T06:03:08;20.60;67.50
74617;DHT22;63123;50.906;4.198;2023-10-09T06:05:47;20.70;67.60
74617;DHT22;63123;50.906;4.198;2023-10-09T06:08:24;20.60;67.50
74617;DHT22;63123;50.906;4.198;2023-10-09T06:10:55;20.60;67.50
74617;DHT22;63123;50.906;4.198;2023-10-09T06:13:39;20.60;67.50
74617;DHT22;63123;50.906;4.198;2023-10-09T06:16:11;20.70;67.60
74617;DHT22;63123;50.906;4.198;2023-10-09T06:19:06;20.70;67.60
74617;DHT22;63123;50.906;4.198;2023-10-09T06:21:40;20.70;67.60
74617;DHT22;63123;50.906;4.198;2023-10-09T06:24:19;20.60;67.50
74617;DHT22;63123;50.906;4.198;2023-10-09T06:26:46;20.60;67.50
74617;DHT22;63123;50.906;4.198;2023-10-09T06:29:24;20.60;67.50
74617;DHT22;63123;50.906;4.198;2023-10-09T06:32:06;20.60;67.50
74617;DHT22;63123;50.906;4.198;2023-10-09T06:34:56;20.60;67.50
74617;DHT22;63123;50.906;4.198;2023-10-09T06:37:25;20.60;67.50
74617;DHT22;63123;50.906;4.198;2023-10-09T06:39:51;20.60;67.50
74617;DHT22;63123;50.906;4.198;2023-10-09T06:42:27;20.60;67.50
74617;DHT22;63123;50.906;4.198;2023-10-09T06:45:12;20.60;67.50
74617;DHT22;63123;50.906;4.198;2023-10-09T06:47:48;20.60;67.50
74617;DHT22;63123;50.906;4.198;2023-10-09T06:50:35;20.60;67.50
74617;DHT22;63123;50.906;4.198;2023-10-09T06:53:20;20.60;67.50
74617;DHT22;63123;50.906;4.198;2023-10-09T06:55:46;20.70;67.50
74617;DHT22;63123;50.906;4.198;2023-10-09T06:58:16;20.60;67.50
74617;DHT22;63123;50.906;4.198;2023-10-09T07:00:50;20.60;67.50
74617;DHT22;63123;50.906;4.198;2023-10-09T07:03:28;20.70;67.50
74617;DHT22;63123;50.906;4.198;2023-10-09T07:06:11;20.70;67.50
74617;DHT22;63123;50.906;4.198;2023-10-09T07:08:56;20.60;67.50
74617;DHT22;63123;50.906;4.198;2023-10-09T07:11:47;20.60;67.50
74617;DHT22;63123;50.906;4.198;2023-10-09T07:14:18;20.60;67.50
74617;DHT22;63123;50.906;4.198;2023-10-09T07:16:57;20.60;67.50
74617;DHT22;63123;50.906;4.198;2023-10-09T07:19:23;20.70;67.50
74617;DHT22;63123;50.906;4.198;2023-10-09T07:22:08;20.60;67.50
74617;DHT22;63123;50.906;4.198;2023-10-09T07:24:49;20.70;67.50
74617;DHT22;63123;50.906;4.198;2023-10-09T07:27:22;20.70;67.40
74617;DHT22;63123;50.906;4.198;2023-10-09T07:30:07;20.70;67.40
74617;DHT22;63123;50.906;4.198;2023-10-09T07:32:54;20.60;67.30
74617;DHT22;63123;50.906;4.198;2023-10-09T07:35:44;20.60;67.10
74617;DHT22;63123;50.906;4.198;2023-10-09T07:38:18;20.70;67.20
74617;DHT22;63123;50.906;4.198;2023-10-09T07:40:48;20.70;67.30
74617;DHT22;63123;50.906;4.198;2023-10-09T07:43:33;20.60;67.20
74617;DHT22;63123;50.906;4.198;2023-10-09T07:46:09;20.60;67.20
74617;DHT22;63123;50.906;4.198;2023-10-09T07:48:57;20.70;67.30
74617;DHT22;63123;50.906;4.198;2023-10-09T07:51:24;20.60;67.20
74617;DHT22;63123;50.906;4.198;2023-10-09T07:53:58;20.60;67.20
74617;DHT22;63123;50.906;4.198;2023-10-09T07:56:36;20.70;67.40
74617;DHT22;63123;50.906;4.198;2023-10-09T07:59:09;20.70;67.30
74617;DHT22;63123;50.906;4.198;2023-10-09T08:01:41;20.60;67.20
74617;DHT22;63123;50.906;4.198;2023-10-09T08:04:28;20.70;67.20
74617;DHT22;63123;50.906;4.198;2023-10-09T08:07:12;20.70;67.20
74617;DHT22;63123;50.906;4.198;2023-10-09T08:09:58;20.60;67.20
74617;DHT22;63123;50.906;4.198;2023-10-09T08:12:39;20.70;67.10
74617;DHT22;63123;50.906;4.198;2023-10-09T08:15:24;20.60;67.20
74617;DHT22;63123;50.906;4.198;2023-10-09T08:18:00;20.60;67.20
74617;DHT22;63123;50.906;4.198;2023-10-09T08:20:44;20.60;67.10
74617;DHT22;63123;50.906;4.198;2023-10-09T08:23:38;20.70;67.20
74617;DHT22;63123;50.906;4.198;2023-10-09T08:26:18;20.60;67.10
74617;DHT22;63123;50.906;4.198;2023-10-09T08:28:58;20.60;67.10
74617;DHT22;63123;50.906;4.198;2023-10-09T08:31:43;20.60;67.10
74617;DHT22;63123;50.906;4.198;2023-10-09T08:34:13;20.60;67.10
74617;DHT22;63123;50.906;4.198;2023-10-09T08:36:49;20.60;67.20
74617;DHT22;63123;50.906;4.198;2023-10-09T08:39:21;20.70;67.20
74617;DHT22;63123;50.906;4.198;2023-10-09T08:42:00;20.70;67.20
74617;DHT22;63123;50.906;4.198;2023-10-09T08:44:28;20.60;67.10
74617;DHT22;63123;50.906;4.198;2023-10-09T08:46:59;20.70;67.20
74617;DHT22;63123;50.906;4.198;2023-10-09T08:49:26;20.60;67.20
74617;DHT22;63123;50.906;4.198;2023-10-09T08:51:51;20.70;67.20
74617;DHT22;63123;50.906;4.198;2023-10-09T08:54:20;20.60;67.20
74617;DHT22;63123;50.906;4.198;2023-10-09T08:56:46;20.60;67.20
74617;DHT22;63123;50.906;4.198;2023-10-09T08:59:16;20.70;67.20
74617;DHT22;63123;50.906;4.198;2023-10-09T09:01:48;20.60;67.10
74617;DHT22;63123;50.906;4.198;2023-10-09T09:07:04;20.60;67.20
74617;DHT22;63123;50.906;4.198;2023-10-09T09:09:30;20.60;67.20
74617;DHT22;63123;50.906;4.198;2023-10-09T09:11:57;20.60;67.20
74617;DHT22;63123;50.906;4.198;2023-10-09T09:14:35;20.70;67.30
74617;DHT22;63123;50.906;4.198;2023-10-09T09:17:02;20.60;67.20
74617;DHT22;63123;50.906;4.198;2023-10-09T09:19:32;20.60;67.20
74617;DHT22;63123;50.906;4.198;2023-10-09T09:22:02;20.60;67.20
74617;DHT22;63123;50.906;4.198;2023-10-09T09:24:39;20.70;67.20
74617;DHT22;63123;50.906;4.198;2023-10-09T09:27:05;20.70;67.20
74617;DHT22;63123;50.906;4.198;2023-10-09T09:30:00;20.70;67.20
74617;DHT22;63123;50.906;4.198;2023-10-09T09:32:32;20.60;67.20
74617;DHT22;63123;50.906;4.198;2023-10-09T09:35:02;20.70;67.20
74617;DHT22;63123;50.906;4.198;2023-10-09T09:37:33;20.70;67.20
74617;DHT22;63123;50.906;4.198;2023-10-09T09:40:08;20.70;67.20
74617;DHT22;63123;50.906;4.198;2023-10-09T09:42:52;20.70;67.20
74617;DHT22;63123;50.906;4.198;2023-10-09T09:45:23;20.70;67.30
74617;DHT22;63123;50.906;4.198;2023-10-09T09:47:50;20.60;67.20
74617;DHT22;63123;50.906;4.198;2023-10-09T09:50:19;20.70;67.30
74617;DHT22;63123;50.906;4.198;2023-10-09T09:52:51;20.60;67.20
74617;DHT22;63123;50.906;4.198;2023-10-09T09:55:25;20.70;67.30
74617;DHT22;63123;50.906;4.198;2023-10-09T09:57:57;20.70;67.30
74617;DHT22;63123;50.906;4.198;2023-10-09T10:00:26;20.70;67.30
74617;DHT22;63123;50.906;4.198;2023-10-09T10:03:03;20.60;67.20
74617;DHT22;63123;50.906;4.198;2023-10-09T10:05:32;20.70;67.30
74617;DHT22;63123;50.906;4.198;2023-10-09T10:07:59;20.60;67.30
74617;DHT22;63123;50.906;4.198;2023-10-09T10:13:00;20.70;67.30
74617;DHT22;63123;50.906;4.198;2023-10-09T10:18:22;20.70;67.30
74617;DHT22;63123;50.906;4.198;2023-10-09T10:23:46;20.70;67.30
74617;DHT22;63123;50.906;4.198;2023-10-09T10:26:22;20.70;67.30
74617;DHT22;63123;50.906;4.198;2023-10-09T10:29:20;20.70;67.30
74617;DHT22;63123;50.906;4.198;2023-10-09T10:31:59;20.70;67.40
74617;DHT22;63123;50.906;4.198;2023-10-09T10:37:37;20.70;67.40
74617;DHT22;63123;50.906;4.198;2023-10-09T10:40:25;20.70;67.40
74617;DHT22;63123;50.906;4.198;2023-10-09T10:43:15;20.70;67.40
74617;DHT22;63123;50.906;4.198;2023-10-09T10:46:06;20.70;67.40
74617;DHT22;63123;50.906;4.198;2023-10-09T10:48:44;20.70;67.40
74617;DHT22;63123;50.906;4.198;2023-10-09T10:51:13;20.70;67.40
74617;DHT22;63123;50.906;4.198;2023-10-09T10:53:51;20.60;67.30
74617;DHT22;63123;50.906;4.198;2023-10-09T10:56:18;20.70;67.40
74617;DHT22;63123;50.906;4.198;2023-10-09T10:58:54;20.70;67.40
74617;DHT22;63123;50.906;4.198;2023-10-09T11:01:35;20.70;67.40
74617;DHT22;63123;50.906;4.198;2023-10-09T11:04:25;20.70;67.50
74617;DHT22;63123;50.906;4.198;2023-10-09T11:07:03;20.70;67.50
74617;DHT22;63123;50.906;4.198;2023-10-09T11:09:44;20.70;67.50
74617;DHT22;63123;50.906;4.198;2023-10-09T11:12:28;20.70;67.50
74617;DHT22;63123;50.906;4.198;2023-10-09T11:15:12;20.60;67.40
74617;DHT22;63123;50.906;4.198;2023-10-09T11:18:04;20.70;67.50
74617;DHT22;63123;50.906;4.198;2023-10-09T11:20:49;20.70;67.50
74617;DHT22;63123;50.906;4.198;2023-10-09T11:23:31;20.70;67.50
74617;DHT22;63123;50.906;4.198;2023-10-09T11:26:01;20.70;67.50
74617;DHT22;63123;50.906;4.198;2023-10-09T11:28:45;20.70;67.50
74617;DHT22;63123;50.906;4.198;2023-10-09T11:31:23;20.70;67.60
74617;DHT22;63123;50.906;4.198;2023-10-09T11:33:52;20.70;67.50
74617;DHT22;63123;50.906;4.198;2023-10-09T11:36:20;20.70;67.50
74617;DHT22;63123;50.906;4.198;2023-10-09T11:39:27;20.70;67.50
74617;DHT22;63123;50.906;4.198;2023-10-09T11:42:17;20.70;67.60
74617;DHT22;63123;50.906;4.198;2023-10-09T11:45:01;20.70;67.50
74617;DHT22;63123;50.906;4.198;2023-10-09T11:47:39;20.70;67.60
74617;DHT22;63123;50.906;4.198;2023-10-09T11:50:19;20.70;67.60
74617;DHT22;63123;50.906;4.198;2023-10-09T11:52:59;20.70;67.60
74617;DHT22;63123;50.906;4.198;2023-10-09T11:55:46;20.70;67.60
74617;DHT22;63123;50.906;4.198;2023-10-09T11:58:16;20.70;67.60
74617;DHT22;63123;50.906;4.198;2023-10-09T12:00:57;20.70;67.60
74617;DHT22;63123;50.906;4.198;2023-10-09T12:03:28;20.70;67.60
74617;DHT22;63123;50.906;4.198;2023-10-09T12:05:56;20.70;67.60
74617;DHT22;63123;50.906;4.198;2023-10-09T12:08:26;20.70;67.60
74617;DHT22;63123;50.906;4.198;2023-10-09T12:10:53;20.70;67.60
74617;DHT22;63123;50.906;4.198;2023-10-09T12:13:21;20.70;67.60
74617;DHT22;63123;50.906;4.198;2023-10-09T12:15:48;20.70;67.60
74617;DHT22;63123;50.906;4.198;2023-10-09T12:18:14;20.70;67.60
74617;DHT22;63123;50.906;4.198;2023-10-09T12:20:41;20.70;67.60
74617;DHT22;63123;50.906;4.198;2023-10-09T12:23:07;20.70;67.60
74617;DHT22;63123;50.906;4.198;2023-10-09T12:25:33;20.70;67.60
74617;DHT22;63123;50.906;4.198;2023-10-09T12:28:02;20.70;67.60
74617;DHT22;63123;50.906;4.198;2023-10-09T12:30:31;20.70;67.70
74617;DHT22;63123;50.906;4.198;2023-10-09T12:33:03;20.70;67.70
74617;DHT22;63123;50.906;4.198;2023-10-09T12:35:29;20.70;67.70
74617;DHT22;63123;50.906;4.198;2023-10-09T12:37:59;20.70;67.60
74617;DHT22;63123;50.906;4.198;2023-10-09T12:40:26;20.70;67.70
74617;DHT22;63123;50.906;4.198;2023-10-09T12:42:57;20.70;67.70
74617;DHT22;63123;50.906;4.198;2023-10-09T12:45:29;20.70;67.70
74617;DHT22;63123;50.906;4.198;2023-10-09T12:47:59;20.70;67.70
74617;DHT22;63123;50.906;4.198;2023-10-09T12:50:25;20.70;67.70
74617;DHT22;63123;50.906;4.198;2023-10-09T12:52:57;20.70;67.70
74617;DHT22;63123;50.906;4.198;2023-10-09T12:55:28;20.70;67.70
74617;DHT22;63123;50.906;4.198;2023-10-09T12:58:00;20.70;67.80
74617;DHT22;63123;50.906;4.198;2023-10-09T13:00:28;20.70;67.80
74617;DHT22;63123;50.906;4.198;2023-10-09T13:02:58;20.70;67.80
74617;DHT22;63123;50.906;4.198;2023-10-09T13:05:27;20.70;67.80
74617;DHT22;63123;50.906;4.198;2023-10-09T13:07:53;20.70;67.80
74617;DHT22;63123;50.906;4.198;2023-10-09T13:10:20;20.70;67.80
74617;DHT22;63123;50.906;4.198;2023-10-09T13:12:49;20.70;67.80
74617;DHT22;63123;50.906;4.198;2023-10-09T13:15:21;20.70;67.90
74617;DHT22;63123;50.906;4.198;2023-10-09T13:17:47;20.70;67.80
74617;DHT22;63123;50.906;4.198;2023-10-09T13:20:13;20.70;67.80
74617;DHT22;63123;50.906;4.198;2023-10-09T13:22:39;20.70;67.80
74617;DHT22;63123;50.906;4.198;2023-10-09T13:25:10;20.70;67.80
74617;DHT22;63123;50.906;4.198;2023-10-09T13:27:44;20.70;67.80
74617;DHT22;63123;50.906;4.198;2023-10-09T13:30:17;20.70;67.80
74617;DHT22;63123;50.906;4.198;2023-10-09T13:32:48;20.70;67.80
74617;DHT22;63123;50.906;4.198;2023-10-09T13:35:18;20.70;67.80
74617;DHT22;63123;50.906;4.198;2023-10-09T13:37:45;20.70;67.90
74617;DHT22;63123;50.906;4.198;2023-10-09T13:40:20;20.70;67.90
74617;DHT22;63123;50.906;4.198;2023-10-09T13:42:53;20.70;67.90
74617;DHT22;63123;50.906;4.198;2023-10-09T13:45:30;20.70;67.90
74617;DHT22;63123;50.906;4.198;2023-10-09T13:47:58;20.70;67.90
74617;DHT22;63123;50.906;4.198;2023-10-09T13:50:24;20.70;67.90
74617;DHT22;63123;50.906;4.198;2023-10-09T13:52:55;20.70;67.90
74617;DHT22;63123;50.906;4.198;2023-10-09T13:55:21;20.70;67.90
74617;DHT22;63123;50.906;4.198;2023-10-09T13:57:47;20.70;67.90
74617;DHT22;63123;50.906;4.198;2023-10-09T14:00:14;20.70;67.90
74617;DHT22;63123;50.906;4.198;2023-10-09T14:02:44;20.70;67.90
74617;DHT22;63123;50.906;4.198;2023-10-09T14:05:12;20.70;68.00
74617;DHT22;63123;50.906;4.198;2023-10-09T14:07:37;20.70;68.00
74617;DHT22;63123;50.906;4.198;2023-10-09T14:10:03;20.70;68.00
74617;DHT22;63123;50.906;4.198;2023-10-09T14:12:32;20.70;67.90
74617;DHT22;63123;50.906;4.198;2023-10-09T14:15:00;20.70;67.90
74617;DHT22;63123;50.906;4.198;2023-10-09T14:17:28;20.70;67.90
74617;DHT22;63123;50.906;4.198;2023-10-09T14:19:55;20.70;67.90
74617;DHT22;63123;50.906;4.198;2023-10-09T14:22:26;20.70;67.90
74617;DHT22;63123;50.906;4.198;2023-10-09T14:24:53;20.70;67.90
74617;DHT22;63123;50.906;4.198;2023-10-09T14:27:24;20.70;67.90
74617;DHT22;63123;50.906;4.198;2023-10-09T14:29:52;20.70;67.90
74617;DHT22;63123;50.906;4.198;2023-10-09T14:32:22;20.70;68.00
74617;DHT22;63123;50.906;4.198;2023-10-09T14:34:54;20.70;67.90
74617;DHT22;63123;50.906;4.198;2023-10-09T14:37:20;20.70;67.90
74617;DHT22;63123;50.906;4.198;2023-10-09T14:39:47;20.70;68.00
74617;DHT22;63123;50.906;4.198;2023-10-09T14:42:15;20.70;68.00
74617;DHT22;63123;50.906;4.198;2023-10-09T14:44:41;20.70;68.00
74617;DHT22;63123;50.906;4.198;2023-10-09T14:47:10;20.70;68.00
74617;DHT22;63123;50.906;4.198;2023-10-09T14:49:36;20.70;68.00
74617;DHT22;63123;50.906;4.198;2023-10-09T14:52:09;20.70;68.00
74617;DHT22;63123;50.906;4.198;2023-10-09T14:54:38;20.70;68.00
74617;DHT22;63123;50.906;4.198;2023-10-09T14:57:03;20.70;68.00
74617;DHT22;63123;50.906;4.198;2023-10-09T14:59:33;20.70;68.00
74617;DHT22;63123;50.906;4.198;2023-10-09T15:01:59;20.70;68.00
74617;DHT22;63123;50.906;4.198;2023-10-09T15:04:25;20.70;68.00
74617;DHT22;63123;50.906;4.198;2023-10-09T15:06:53;20.70;68.00
74617;DHT22;63123;50.906;4.198;2023-10-09T15:09:19;20.70;68.00
74617;DHT22;63123;50.906;4.198;2023-10-09T15:11:51;20.70;68.00
74617;DHT22;63123;50.906;4.198;2023-10-09T15:14:18;20.70;68.00
74617;DHT22;63123;50.906;4.198;2023-10-09T15:16:47;20.70;68.00
74617;DHT22;63123;50.906;4.198;2023-10-09T15:19:13;20.70;68.00
74617;DHT22;63123;50.906;4.198;2023-10-09T15:21:40;20.70;68.10
74617;DHT22;63123;50.906;4.198;2023-10-09T15:24:12;20.70;68.10
74617;DHT22;63123;50.906;4.198;2023-10-09T15:26:42;20.70;68.10
74617;DHT22;63123;50.906;4.198;2023-10-09T15:29:08;20.70;68.10
74617;DHT22;63123;50.906;4.198;2023-10-09T15:31:35;20.70;68.10
74617;DHT22;63123;50.906;4.198;2023-10-09T15:34:01;20.70;68.10
74617;DHT22;63123;50.906;4.198;2023-10-09T15:36:28;20.70;68.10
74617;DHT22;63123;50.906;4.198;2023-10-09T15:38:57;20.70;68.10
74617;DHT22;63123;50.906;4.198;2023-10-09T15:41:27;20.70;68.80
74617;DHT22;63123;50.906;4.198;2023-10-09T15:43:56;20.70;68.10
74617;DHT22;63123;50.906;4.198;2023-10-09T15:46:23;20.70;68.20
74617;DHT22;63123;50.906;4.198;2023-10-09T15:48:48;20.70;68.20
74617;DHT22;63123;50.906;4.198;2023-10-09T15:51:16;20.70;68.20
74617;DHT22;63123;50.906;4.198;2023-10-09T15:53:43;20.70;68.20
74617;DHT22;63123;50.906;4.198;2023-10-09T15:56:12;20.70;68.20
74617;DHT22;63123;50.906;4.198;2023-10-09T15:58:40;20.70;68.20
74617;DHT22;63123;50.906;4.198;2023-10-09T16:01:11;20.70;68.30
74617;DHT22;63123;50.906;4.198;2023-10-09T16:03:41;20.70;68.30
74617;DHT22;63123;50.906;4.198;2023-10-09T16:06:07;20.70;68.40
74617;DHT22;63123;50.906;4.198;2023-10-09T16:08:36;20.70;68.50
74617;DHT22;63123;50.906;4.198;2023-10-09T16:11:04;20.70;68.50
74617;DHT22;63123;50.906;4.198;2023-10-09T16:13:29;20.70;68.50
74617;DHT22;63123;50.906;4.198;2023-10-09T16:15:55;20.70;68.50
74617;DHT22;63123;50.906;4.198;2023-10-09T16:18:25;20.70;68.50
74617;DHT22;63123;50.906;4.198;2023-10-09T16:20:53;20.70;68.50
74617;DHT22;63123;50.906;4.198;2023-10-09T16:23:20;20.70;68.50